Terminal Aerodrome Forecast
Issued by NWS

Home | Current Version | Previous Version | Text Only | Print | Product List | Glossary On
Versions: 1 2 3 4 5 6 7 8 9 10 11 12 13 14 15 16
000
FTUS42 KFFC 030534
TAFRYY
TAF
KRYY 030534Z 0306/0406 00000KT P6SM BKN250
     FM031200 34004KT P6SM BKN150
     FM031600 03005KT P6SM BKN120
     FM032300 00000KT P6SM VCSH OVC060
     FM040300 00000KT 5SM -RADZ OVC040
      AMD NOT SKED TIL 031200=

USA.gov is the U.S. government's official web portal to all federal, state and local government web resources and services.